Time;durP1;ratioP1;P1;durP2;ratioP2;P2;SDS_P1;SDS_P2;PMS_P1;PMS_P2;Temp;Humidity;BMP_temperature;BMP_pressure;BME280_temperature;BME280_humidity;BME280_pressure;Samples;Min_cycle;Max_cycle;Signal;HPM_P1;HPM_P2
2022/01/13 00:04:50;;;;;;;5.28;2.10;;;;;;;0.27;100.00;99951.34;10135138;29;20129;-75
2022/01/13 00:09:51;;;;;;;5.50;2.20;;;;;;;1.76;100.00;100206.19;10134094;29;20482;-75
2022/01/13 00:25:15;;;;;;;4.57;2.30;;;;;;;1.50;100.00;100186.38;10131833;29;20060;-77
2022/01/13 00:30:18;;;;;;;6.32;2.03;;;;;;;0.61;100.00;100080.41;10130496;29;20517;-76
2022/01/13 00:35:19;;;;;;;4.30;2.55;;;;;;;1.43;100.00;100230.47;10131453;29;20045;-76
2022/01/13 00:40:20;;;;;;;3.75;2.13;;;;;;;1.18;100.00;100218.34;10131976;29;20084;-76
2022/01/13 00:45:21;;;;;;;4.80;2.67;;;;;;;0.89;100.00;100182.03;10135855;29;20135;-76
2022/01/13 00:50:21;;;;;;;4.68;2.45;;;;;;;1.14;100.00;100258.78;10139315;29;20442;-78
2022/01/13 00:55:32;;;;;;;4.07;2.40;;;;;;;0.81;100.00;100212.31;10139211;29;20044;-76
2022/01/13 01:00:33;;;;;;;4.47;2.13;;;;;;;-0.01;100.00;100076.91;10138994;29;20084;-76
2022/01/13 01:05:35;;;;;;;3.20;1.92;;;;;;;0.57;100.00;100197.41;10137881;29;20068;-76
2022/01/13 01:10:38;;;;;;;5.55;2.58;;;;;;;0.27;100.00;100155.97;10102281;29;1516988;-76
2022/01/13 01:15:47;;;;;;;5.25;3.20;;;;;;;0.57;100.00;100230.53;10138315;29;20053;-76
2022/01/13 01:21:46;;;;;;;5.22;3.40;;;;;;;0.55;100.00;100235.88;10140218;29;20100;-76
2022/01/13 01:26:24;;;;;;;5.15;2.95;;;;;;;0.36;100.00;100257.25;10138826;29;20104;-77
2022/01/13 01:31:29;;;;;;;6.55;4.25;;;;;;;0.33;100.00;100278.34;10140063;29;20041;-77
2022/01/13 01:36:31;;;;;;;8.50;4.35;;;;;;;-0.29;100.00;100189.38;10140811;29;20087;-76
2022/01/13 01:41:36;;;;;;;7.75;3.78;;;;;;;-0.55;100.00;100139.75;10154101;29;20413;-75
2022/01/13 01:46:41;;;;;;;;;;;;;;;0.29;100.00;100296.94;10139151;29;20054;-76
2022/01/13 01:51:44;;;;;;;6.95;3.47;;;;;;;0.10;100.00;100281.66;10138752;29;20376;-76
2022/01/13 01:56:45;;;;;;;5.40;3.13;;;;;;;-0.11;100.00;100257.81;10153465;29;20497;-76
2022/01/13 02:01:48;;;;;;;5.35;2.97;;;;;;;-0.53;100.00;100202.28;10138971;29;20458;-76
2022/01/13 02:06:49;;;;;;;5.45;3.00;;;;;;;-0.27;100.00;100245.78;10165726;29;20056;-76
2022/01/13 02:11:54;;;;;;;5.40;3.50;;;;;;;0.18;100.00;100311.56;10138514;29;20417;-76
2022/01/13 02:17:10;;;;;;;6.22;3.03;;;;;;;0.27;100.00;100322.31;10138241;29;20064;-77
2022/01/13 02:22:11;;;;;;;6.00;3.85;;;;;;;-0.03;100.00;100298.16;10152524;29;20037;-76
2022/01/13 02:27:12;;;;;;;6.60;3.72;;;;;;;-0.77;100.00;100207.31;10138076;29;20056;-75
2022/01/13 02:32:13;;;;;;;6.75;3.95;;;;;;;-0.31;100.00;100277.41;10138242;29;20107;-78
2022/01/13 02:37:15;;;;;;;5.90;4.07;;;;;;;-0.34;100.00;100295.88;10137990;29;20096;-77
2022/01/13 02:42:16;;;;;;;5.72;3.75;;;;;;;-0.69;100.00;100236.34;10138077;29;20402;-76
2022/01/13 02:47:57;;;;;;;5.90;3.42;;;;;;;-0.10;100.00;100369.16;10136546;29;20049;-77
2022/01/13 02:52:56;;;;;;;7.43;4.15;;;;;;;-0.33;100.00;100368.88;10136828;29;20044;-76
2022/01/13 02:57:56;;;;;;;6.45;4.28;;;;;;;-0.26;100.00;100374.53;10136381;29;20386;-77
2022/01/13 03:02:57;;;;;;;14.52;7.28;;;;;;;-1.11;100.00;100245.94;10172350;29;20583;-78
2022/01/13 03:07:58;;;;;;;5.35;3.28;;;;;;;-0.34;100.00;100382.84;10171600;29;20048;-75
2022/01/13 03:13:00;;;;;;;5.05;3.33;;;;;;;-1.52;100.00;100233.72;10173667;29;20060;-76
2022/01/13 03:18:01;;;;;;;6.82;4.28;;;;;;;-0.59;100.00;100417.47;10174323;29;20107;-75
2022/01/13 03:23:05;;;;;;;6.45;3.75;;;;;;;-0.57;100.00;100417.34;10175260;29;20044;-74
2022/01/13 03:28:13;;;;;;;8.35;4.10;;;;;;;-0.51;100.00;100430.88;10152487;29;20041;-73
2022/01/13 03:33:14;;;;;;;6.25;3.92;;;;;;;-0.89;100.00;100386.28;10174471;29;20075;-74
2022/01/13 03:38:15;;;;;;;5.35;3.40;;;;;;;-0.98;100.00;100420.75;10163526;29;20052;-76
2022/01/13 03:43:17;;;;;;;6.40;3.15;;;;;;;-1.26;100.00;100390.25;10169875;29;20394;-75
2022/01/13 03:48:17;;;;;;;6.57;3.25;;;;;;;-0.86;100.00;100448.69;10174474;29;20040;-77
2022/01/13 03:53:28;;;;;;;4.57;2.95;;;;;;;-0.62;100.00;100485.50;10152445;29;20048;-69
2022/01/13 03:58:47;;;;;;;5.53;3.38;;;;;;;-0.61;100.00;100496.75;10172482;29;20082;-75
2022/01/13 04:03:48;;;;;;;5.47;3.30;;;;;;;-1.24;99.41;100422.28;10172912;29;20568;-73
2022/01/13 04:08:50;;;;;;;8.00;3.83;;;;;;;-1.16;99.32;100470.44;10170150;29;20103;-72
2022/01/13 04:13:56;;;;;;;7.85;4.57;;;;;;;-1.01;97.49;100517.41;10182035;29;20083;-73
2022/01/13 04:19:03;;;;;;;9.45;5.40;;;;;;;-1.18;95.98;100519.22;10172800;29;20083;-78
2022/01/13 04:24:06;;;;;;;8.63;5.28;;;;;;;-1.38;95.89;100503.88;10172241;29;20578;-75
2022/01/13 04:34:11;;;;;;;10.05;6.28;;;;;;;-1.53;94.20;100534.22;10172376;29;20044;-73
2022/01/13 04:39:15;;;;;;;12.82;6.38;;;;;;;-1.39;94.05;100549.94;10172080;29;20509;-74
2022/01/13 04:44:18;;;;;;;11.95;6.50;;;;;;;-2.36;94.79;100387.84;10171802;29;20044;-74
2022/01/13 04:49:19;;;;;;;13.45;7.85;;;;;;;-1.46;93.55;100566.03;10172717;29;20040;-74
2022/01/13 04:54:20;;;;;;;17.17;8.40;;;;;;;-1.60;93.27;100569.38;10182859;29;20071;-74
2022/01/13 04:59:21;;;;;;;16.38;9.23;;;;;;;-1.75;93.41;100537.22;10171689;29;20086;-75
2022/01/13 05:04:22;;;;;;;14.48;8.80;;;;;;;-2.37;93.38;100453.81;10172216;29;20539;-73
2022/01/13 05:09:23;;;;;;;13.85;8.07;;;;;;;-1.69;92.81;100593.34;10171638;29;20107;-75
2022/01/13 05:14:25;;;;;;;16.63;8.05;;;;;;;-1.75;93.30;100622.31;10172418;29;20048;-74
2022/01/13 05:19:40;;;;;;;18.55;7.80;;;;;;;-1.87;92.76;100626.41;10171983;29;20103;-74
2022/01/13 05:24:46;;;;;;;14.25;8.57;;;;;;;-2.96;91.42;100483.81;10171909;29;20048;-76
2022/01/13 05:29:47;;;;;;;15.35;7.45;;;;;;;-3.32;91.16;100452.72;10173594;29;20043;-74
2022/01/13 05:34:47;;;;;;;12.68;6.65;;;;;;;-2.50;90.70;100618.44;10179517;29;20052;-74
2022/01/13 05:39:48;;;;;;;16.90;7.95;;;;;;;-3.27;91.36;100500.09;10178627;29;20099;-76
2022/01/13 05:44:50;;;;;;;12.35;7.35;;;;;;;-2.63;90.82;100616.47;10179477;29;20051;-74
2022/01/13 05:49:51;;;;;;;15.10;7.55;;;;;;;-2.70;91.27;100614.22;10178476;29;20160;-74
2022/01/13 05:54:51;;;;;;;11.68;6.13;;;;;;;-2.37;90.71;100684.53;10178608;29;20747;-74
2022/01/13 05:59:52;;;;;;;13.80;8.13;;;;;;;-3.19;90.79;100606.25;10176844;29;20142;-74
2022/01/13 06:04:53;;;;;;;17.35;7.95;;;;;;;-2.92;90.98;100682.03;10177904;29;20535;-73
2022/01/13 06:09:54;;;;;;;12.18;6.35;;;;;;;-2.85;90.55;100678.22;10177113;29;20509;-74
2022/01/13 06:14:54;;;;;;;13.45;6.85;;;;;;;-3.43;90.67;100587.47;10177100;29;20083;-74
2022/01/13 06:19:56;;;;;;;10.88;6.00;;;;;;;-2.73;90.43;100734.00;10177408;29;20484;-74
2022/01/13 06:24:56;;;;;;;15.15;6.63;;;;;;;-3.02;89.88;100713.69;10177441;29;20413;-74
2022/01/13 06:29:57;;;;;;;11.13;5.78;;;;;;;-3.03;90.09;100704.19;10176964;29;20059;-73
2022/01/13 06:34:58;;;;;;;14.60;7.03;;;;;;;-3.08;89.79;100684.50;10176800;29;20520;-73
2022/01/13 06:40:02;;;;;;;16.23;8.07;;;;;;;-2.95;89.92;100713.38;10175725;29;20044;-73
2022/01/13 06:45:04;;;;;;;14.65;6.57;;;;;;;-3.02;89.30;100716.28;10176659;29;20556;-75
2022/01/13 06:50:07;;;;;;;14.18;6.20;;;;;;;-2.85;89.06;100751.84;10177164;29;20087;-73
2022/01/13 06:55:08;;;;;;;13.00;6.72;;;;;;;-3.01;88.00;100741.34;10175403;29;20044;-73
2022/01/13 07:00:10;;;;;;;12.93;6.30;;;;;;;-3.10;87.87;100736.56;10175323;29;20044;-74
2022/01/13 07:05:11;;;;;;;14.00;6.53;;;;;;;-3.01;87.85;100745.72;10175730;29;20040;-73
2022/01/13 07:10:13;;;;;;;13.52;7.70;;;;;;;-2.87;88.16;100768.44;10175031;29;20063;-74
2022/01/13 07:15:14;;;;;;;16.02;6.78;;;;;;;-2.80;87.68;100775.91;10175254;29;20134;-74
2022/01/13 07:20:15;;;;;;;14.80;7.40;;;;;;;-2.91;87.52;100767.75;10174518;29;20071;-73
2022/01/13 07:25:16;;;;;;;11.43;5.28;;;;;;;-3.03;87.04;100758.75;10174873;29;20044;-73
2022/01/13 07:30:17;;;;;;;10.10;5.13;;;;;;;-2.95;86.47;100804.38;10174527;29;20055;-74
2022/01/13 07:35:18;;;;;;;10.55;5.53;;;;;;;-3.00;87.00;100794.16;10175122;29;20139;-73
2022/01/13 07:40:19;;;;;;;11.90;5.25;;;;;;;-3.54;86.44;100710.88;10174237;29;20071;-73
2022/01/13 07:45:20;;;;;;;11.38;5.07;;;;;;;-3.04;86.63;100800.44;10173424;29;20107;-76
2022/01/13 07:50:20;;;;;;;12.30;5.93;;;;;;;-3.75;86.68;100704.88;10173896;29;20086;-75
2022/01/13 07:55:21;;;;;;;9.70;5.30;;;;;;;-3.00;87.16;100812.38;10173398;29;20058;-75
2022/01/13 08:00:22;;;;;;;8.45;3.70;;;;;;;-3.99;86.48;100654.06;10173683;29;20040;-75
2022/01/13 08:05:23;;;;;;;11.50;6.18;;;;;;;-3.36;86.89;100784.53;10173987;29;20044;-74
2022/01/13 08:10:24;;;;;;;18.23;7.47;;;;;;;-3.48;87.02;100777.28;10173957;29;20496;-75
2022/01/13 08:15:25;;;;;;;18.80;8.52;;;;;;;-3.91;86.44;100696.09;10172939;29;20079;-75
2022/01/13 08:20:26;;;;;;;14.55;6.90;;;;;;;-3.35;86.74;100807.00;10173144;29;20515;-75
2022/01/13 08:25:27;;;;;;;14.43;7.22;;;;;;;-3.91;87.07;100693.50;10173579;29;20143;-73
2022/01/13 08:30:28;;;;;;;13.65;7.00;;;;;;;-3.12;87.68;100789.53;10172409;29;20043;-73
2022/01/13 08:35:29;;;;;;;15.88;7.70;;;;;;;-3.04;87.60;100816.03;10172345;29;20047;-73
2022/01/13 08:40:32;;;;;;;11.05;5.75;;;;;;;-3.57;88.24;100728.34;10172642;29;20402;-73
2022/01/13 08:45:33;;;;;;;15.70;6.97;;;;;;;-3.14;88.32;100802.63;10172051;29;20051;-74
2022/01/13 08:50:34;;;;;;;13.45;7.22;;;;;;;-3.07;88.15;100801.41;10173110;29;20054;-73
2022/01/13 08:55:35;;;;;;;11.55;6.00;;;;;;;-3.09;87.93;100805.81;10172457;29;20047;-74
2022/01/13 09:00:37;;;;;;;13.82;6.80;;;;;;;-3.17;87.69;100797.56;10172020;29;20040;-73
2022/01/13 09:05:40;;;;;;;14.93;7.80;;;;;;;-3.23;87.45;100803.00;10176051;29;20127;-73
2022/01/13 09:10:43;;;;;;;13.52;7.60;;;;;;;-3.34;87.20;100800.06;10180073;29;20064;-75
2022/01/13 09:15:47;;;;;;;10.45;6.25;;;;;;;-3.43;86.66;100796.13;10179047;29;20047;-73
2022/01/13 09:20:48;;;;;;;15.48;8.20;;;;;;;-3.64;86.57;100807.44;10179395;29;20051;-74
2022/01/13 09:25:49;;;;;;;15.25;7.63;;;;;;;-3.85;86.65;100755.53;10179933;29;20484;-73
2022/01/13 09:30:50;;;;;;;18.00;9.20;;;;;;;-3.75;86.68;100795.75;10178530;29;20545;-74
2022/01/13 09:35:51;;;;;;;24.58;9.35;;;;;;;-3.87;87.40;100798.03;10178993;29;20131;-74
2022/01/13 09:40:54;;;;;;;16.65;7.68;;;;;;;-5.06;87.47;100616.19;10177217;29;20525;-74
2022/01/13 09:45:58;;;;;;;15.93;7.00;;;;;;;-3.96;87.34;100794.91;10178680;29;20115;-73
2022/01/13 09:50:58;;;;;;;12.32;6.43;;;;;;;-4.55;86.75;100671.13;10178407;29;20036;-73
2022/01/13 09:55:59;;;;;;;14.52;7.80;;;;;;;-4.04;85.52;100744.22;10178168;29;20414;-73
2022/01/13 10:01:00;;;;;;;18.35;8.63;;;;;;;-4.33;84.98;100658.13;10177642;29;20036;-74
2022/01/13 10:06:09;;;;;;;14.60;7.32;;;;;;;-3.58;82.80;100758.66;10177430;29;20050;-73
2022/01/13 10:11:34;;;;;;;13.80;7.15;;;;;;;-3.15;82.81;100794.88;10178737;29;20106;-74
2022/01/13 10:16:42;;;;;;;13.63;7.15;;;;;;;-3.40;81.84;100770.00;10177682;29;20050;-73
2022/01/13 10:21:55;;;;;;;13.93;7.55;;;;;;;-3.13;81.26;100813.84;10178152;29;20079;-74
2022/01/13 10:27:00;;;;;;;16.25;7.72;;;;;;;-3.00;80.77;100791.56;10177467;29;20036;-73
2022/01/13 10:32:01;;;;;;;12.75;7.20;;;;;;;-4.71;80.00;100537.91;10176364;29;20519;-74
2022/01/13 10:37:11;;;;;;;16.00;7.95;;;;;;;-3.16;80.10;100790.59;10176680;29;20039;-73
2022/01/13 10:43:06;;;;;;;15.45;8.05;;;;;;;-3.07;79.48;100823.97;10175981;29;20048;-73
2022/01/13 10:47:52;;;;;;;11.20;5.25;;;;;;;-2.93;79.45;100811.19;10176163;29;20051;-73
2022/01/13 10:52:53;;;;;;;11.88;6.18;;;;;;;-3.10;78.17;100779.91;10175670;29;20047;-74
2022/01/13 10:57:54;;;;;;;12.43;6.63;;;;;;;-3.06;77.25;100825.63;10175212;29;20087;-74
2022/01/13 11:03:17;;;;;;;11.50;5.85;;;;;;;-3.28;77.38;100799.78;10175680;29;20044;-74
2022/01/13 11:08:26;;;;;;;12.85;5.78;;;;;;;-3.04;77.64;100831.63;10174939;29;20503;-73
2022/01/13 11:13:29;;;;;;;12.73;5.90;;;;;;;-2.95;77.63;100832.97;10174889;29;20044;-76
2022/01/13 11:18:33;;;;;;;13.57;6.97;;;;;;;-3.26;77.68;100778.03;10174900;29;20055;-74
2022/01/13 11:23:37;;;;;;;12.85;7.22;;;;;;;-3.73;76.77;100726.44;10175000;29;20044;-73
2022/01/13 11:28:39;;;;;;;;;;;;;;;-3.03;75.67;100857.53;10174101;29;20055;-74
2022/01/13 11:33:40;;;;;;;9.95;5.05;;;;;;;-3.25;75.73;100839.47;10174130;29;20376;-74
2022/01/13 11:39:00;;;;;;;10.95;5.32;;;;;;;-3.13;75.42;100855.41;10174037;29;20100;-76
2022/01/13 11:44:18;;;;;;;9.40;4.80;;;;;;;-3.45;74.65;100824.72;10173712;29;20489;-74
2022/01/13 11:49:23;;;;;;;14.98;7.25;;;;;;;-4.32;72.51;100697.88;10174310;29;20051;-74
2022/01/13 11:54:35;;;;;;;11.30;6.65;;;;;;;-4.11;72.20;100767.00;10174555;29;20052;-73
2022/01/13 11:59:37;;;;;;;11.88;5.97;;;;;;;-3.88;73.20;100823.16;10174136;29;20040;-74
2022/01/13 12:05:07;;;;;;;12.68;6.05;;;;;;;-3.62;73.58;100867.91;10173012;29;20052;-73
2022/01/13 12:10:09;;;;;;;9.20;5.28;;;;;;;-3.71;72.98;100893.38;10174318;29;20060;-73
2022/01/13 12:15:20;;;;;;;12.95;6.57;;;;;;;-3.67;72.80;100892.34;10173267;29;20465;-73
2022/01/13 12:20:40;;;;;;;12.45;5.53;;;;;;;-3.63;72.79;100895.66;10173143;29;20544;-73
2022/01/13 12:25:41;;;;;;;12.13;6.55;;;;;;;-3.62;72.82;100917.25;10160130;29;20056;-74
2022/01/13 12:30:42;;;;;;;11.98;5.40;;;;;;;-4.11;71.47;100851.78;10192226;29;20497;-73
2022/01/13 12:35:44;;;;;;;12.48;5.45;;;;;;;-4.06;71.67;100884.44;10209396;29;20048;-74
2022/01/13 12:40:56;;;;;;;10.82;5.78;;;;;;;-4.04;71.33;100924.13;10182736;29;20045;-74
2022/01/13 12:45:57;;;;;;;9.27;4.60;;;;;;;-4.47;70.66;100839.38;10159957;29;20059;-77
2022/01/13 12:50:59;;;;;;;8.50;4.30;;;;;;;-4.22;71.22;100894.59;10173353;29;20043;-74
2022/01/13 12:56:13;;;;;;;10.80;5.28;;;;;;;-4.15;70.68;100929.75;10175272;29;20107;-74
2022/01/13 13:01:15;;;;;;;;;;;;;;;-4.17;71.65;100921.16;10169697;29;20036;-75
2022/01/13 13:06:17;;;;;;;9.68;4.45;;;;;;;-4.34;71.00;100914.94;10174430;29;20343;-74
2022/01/13 13:11:18;;;;;;;13.57;6.95;;;;;;;-4.62;71.45;100898.69;10179248;29;20060;-74
2022/01/13 13:16:19;;;;;;;12.80;6.07;;;;;;;-4.56;71.95;100930.50;10177334;29;20055;-74
2022/01/13 13:21:20;;;;;;;11.98;5.82;;;;;;;-4.47;72.11;100959.50;10173206;29;20036;-74
2022/01/13 13:26:22;;;;;;;14.40;6.07;;;;;;;-4.79;72.45;100924.38;10178269;29;20052;-74
2022/01/13 13:31:27;;;;;;;16.23;7.88;;;;;;;-4.83;72.50;100928.00;10176108;29;20404;-74
2022/01/13 13:36:33;;;;;;;14.60;7.20;;;;;;;-4.55;72.84;100969.31;10162693;29;20044;-74
2022/01/13 13:41:35;;;;;;;14.63;8.00;;;;;;;-4.72;72.97;100963.91;10141699;29;20048;-74
2022/01/13 13:46:37;;;;;;;16.38;7.28;;;;;;;-4.72;73.77;100985.50;10163823;29;20148;-74
2022/01/13 13:51:40;;;;;;;13.18;7.53;;;;;;;-5.18;73.49;100939.63;10176584;29;20044;-74
2022/01/13 13:56:46;;;;;;;10.45;5.43;;;;;;;-4.94;74.09;100992.31;10176845;29;20058;-73
2022/01/13 14:02:00;;;;;;;13.43;7.18;;;;;;;-5.01;74.40;100989.09;10176377;29;20060;-73
2022/01/13 14:07:01;;;;;;;14.38;7.20;;;;;;;-5.94;74.63;100837.81;10177035;29;20040;-73
2022/01/13 14:12:02;;;;;;;17.65;8.02;;;;;;;-5.93;74.63;100851.59;10177401;29;20056;-73
2022/01/13 14:17:03;;;;;;;15.48;7.68;;;;;;;-5.13;75.19;100977.41;10177122;29;20058;-73
2022/01/13 14:22:04;;;;;;;16.52;8.18;;;;;;;-5.60;74.12;100924.63;10176968;29;20059;-73
2022/01/13 14:27:13;;;;;;;15.38;6.07;;;;;;;-5.15;74.67;100973.19;10175236;29;20035;-75
2022/01/13 14:32:23;;;;;;;13.02;6.45;;;;;;;-4.94;74.58;101013.88;10176556;29;20044;-73
2022/01/13 14:37:26;;;;;;;14.70;7.50;;;;;;;-5.15;74.32;100994.75;10175771;29;20244;-73
2022/01/13 14:42:29;;;;;;;16.83;7.38;;;;;;;-6.50;74.25;100779.28;10174782;29;20052;-73
2022/01/13 14:47:30;;;;;;;19.13;8.05;;;;;;;-5.34;73.20;100986.75;10199588;29;20146;-73
2022/01/13 14:52:31;;;;;;;15.75;7.75;;;;;;;-5.09;73.80;101020.44;10214192;29;20134;-74
2022/01/13 14:57:32;;;;;;;11.13;5.88;;;;;;;-5.55;73.37;100953.81;10215131;29;20043;-73
2022/01/13 15:02:33;;;;;;;9.35;4.97;;;;;;;-5.32;73.65;101002.25;10213284;29;20047;-73
2022/01/13 15:07:34;;;;;;;13.32;6.72;;;;;;;-6.27;73.67;100844.94;10214087;29;20036;-73
2022/01/13 15:12:35;;;;;;;15.43;7.45;;;;;;;-5.67;73.80;100952.47;10214011;29;20056;-73
2022/01/13 15:17:36;;;;;;;15.02;7.38;;;;;;;-5.78;74.04;100952.81;10213812;29;20052;-73
2022/01/13 15:22:37;;;;;;;12.68;5.03;;;;;;;-5.64;73.92;100996.38;10165318;29;20044;-74
2022/01/13 15:27:37;;;;;;;13.45;7.18;;;;;;;-5.61;74.00;101010.97;10171621;29;20040;-74
2022/01/13 15:32:38;;;;;;;12.18;6.68;;;;;;;-5.58;73.73;101032.41;10173112;29;20040;-74
2022/01/13 15:37:39;;;;;;;10.57;5.13;;;;;;;-5.82;73.80;101020.25;10134655;29;20055;-72
2022/01/13 15:42:42;;;;;;;17.05;7.88;;;;;;;-5.56;73.85;101055.69;10149436;29;20040;-73
2022/01/13 15:47:45;;;;;;;12.48;5.53;;;;;;;-5.95;74.70;100995.66;10135180;29;20036;-73
2022/01/13 15:52:46;;;;;;;12.38;6.95;;;;;;;-5.59;74.52;101042.84;10134062;29;20048;-73
2022/01/13 15:57:47;;;;;;;14.27;7.65;;;;;;;-5.67;74.10;101037.88;10157359;29;20202;-72
2022/01/13 16:02:48;;;;;;;12.48;6.43;;;;;;;-5.47;74.33;101057.09;10173407;29;20052;-72
2022/01/13 16:07:51;;;;;;;14.25;7.38;;;;;;;-6.18;73.94;100950.66;10152089;29;20068;-73
2022/01/13 16:12:52;;;;;;;14.65;6.63;;;;;;;-5.54;74.33;101053.88;10165892;29;20056;-73
2022/01/13 16:17:53;;;;;;;11.63;5.82;;;;;;;-5.88;72.78;101007.50;10131270;29;20619;-73
2022/01/13 16:22:54;;;;;;;9.85;5.90;;;;;;;-5.72;71.66;101047.53;10133463;29;20500;-74
2022/01/13 16:27:55;;;;;;;9.70;4.95;;;;;;;-5.72;70.61;101067.38;10169270;29;20039;-74
2022/01/13 16:32:58;;;;;;;6.78;3.92;;;;;;;-5.63;69.56;101096.41;10163456;29;20044;-73
2022/01/13 16:38:01;;;;;;;11.65;4.63;;;;;;;-5.98;68.98;101050.94;10167691;29;20044;-73
2022/01/13 16:43:04;;;;;;;12.20;5.75;;;;;;;-6.78;68.77;100928.31;10171978;29;20076;-79
2022/01/13 16:48:07;;;;;;;11.80;5.03;;;;;;;-5.76;68.65;101089.94;10172615;29;20052;-75
2022/01/13 16:53:08;;;;;;;7.50;4.13;;;;;;;-5.78;69.16;101091.69;10172620;29;20055;-72
2022/01/13 16:58:09;;;;;;;9.82;3.58;;;;;;;-6.08;69.55;101062.44;10172201;29;20064;-73
2022/01/13 17:03:10;;;;;;;11.48;4.65;;;;;;;-5.97;68.23;101101.78;10170963;29;20065;-73
2022/01/13 17:08:12;;;;;;;9.85;4.15;;;;;;;-6.94;68.12;100972.66;10171832;29;20040;-70
2022/01/13 17:13:16;;;;;;;16.17;5.45;;;;;;;-6.30;68.83;101080.31;10158639;29;20473;-73
2022/01/13 17:18:16;;;;;;;;;;;;;;;-6.18;68.82;101113.59;10176106;29;20051;-72
2022/01/13 17:23:17;;;;;;;6.80;3.53;;;;;;;-6.37;68.68;101073.59;10171868;29;19972;-70
2022/01/13 17:28:18;;;;;;;9.25;4.72;;;;;;;-6.14;68.79;101119.50;10188334;28;21290;-70
2022/01/13 17:33:19;;;;;;;9.50;4.60;;;;;;;-6.34;69.30;101091.63;10219178;28;20067;-73
2022/01/13 17:38:20;;;;;;;8.77;4.80;;;;;;;-6.69;69.37;101046.91;10218289;29;20055;-72
2022/01/13 17:43:21;;;;;;;10.90;5.20;;;;;;;-6.29;69.87;101131.13;10217503;29;20042;-72
2022/01/13 17:48:23;;;;;;;12.10;6.22;;;;;;;-6.38;70.21;101124.47;10218060;29;20051;-70
2022/01/13 17:53:24;;;;;;;9.57;5.05;;;;;;;-6.72;70.54;101071.09;10217440;29;20496;-70
2022/01/13 17:58:24;;;;;;;10.20;4.55;;;;;;;-6.53;69.89;101101.63;10204094;29;20052;-69
2022/01/13 18:03:25;;;;;;;9.32;4.70;;;;;;;-6.41;70.08;101121.13;10183747;29;20050;-74
2022/01/13 18:08:27;;;;;;;8.43;4.10;;;;;;;-6.26;69.73;101142.22;10215189;29;20126;-70
2022/01/13 18:13:30;;;;;;;11.77;5.35;;;;;;;-7.66;68.68;100894.50;10217480;29;20064;-71
2022/01/13 18:18:31;;;;;;;9.43;5.13;;;;;;;-6.30;69.65;101101.00;10216604;29;20051;-70
2022/01/13 18:23:33;;;;;;;13.27;5.38;;;;;;;-6.22;69.97;101101.66;10215364;29;20051;-71
2022/01/13 18:28:34;;;;;;;10.50;4.78;;;;;;;-6.96;69.27;100950.34;10216654;29;20099;-76
2022/01/13 18:33:35;;;;;;;10.13;4.50;;;;;;;-6.37;69.40;101077.06;10215734;29;20043;-72
2022/01/13 18:38:36;;;;;;;12.35;5.25;;;;;;;-6.44;69.72;101091.88;10215615;29;20107;-69
2022/01/13 18:43:36;;;;;;;11.85;5.70;;;;;;;-6.45;69.17;101079.84;10213775;28;20074;-69
2022/01/13 18:48:37;;;;;;;9.63;5.32;;;;;;;-6.56;69.34;101055.19;10215421;29;20091;-71
2022/01/13 18:53:38;;;;;;;12.95;6.03;;;;;;;-6.38;69.33;101090.84;10213258;29;20412;-70
2022/01/13 18:58:39;;;;;;;9.45;4.65;;;;;;;-6.34;69.27;101083.84;10215038;29;20043;-73
2022/01/13 19:03:40;;;;;;;8.80;5.20;;;;;;;-6.62;69.34;101034.66;10214633;29;20039;-71
2022/01/13 19:08:42;;;;;;;9.05;5.10;;;;;;;-6.49;69.26;101062.72;10215075;29;20496;-71
2022/01/13 19:13:42;;;;;;;8.60;4.20;;;;;;;-6.68;69.81;101030.50;10215299;29;20150;-71
2022/01/13 19:18:45;;;;;;;7.43;3.55;;;;;;;-6.46;69.51;101067.81;10175639;29;20599;-72
2022/01/13 19:23:47;;;;;;;8.90;5.00;;;;;;;-6.53;69.94;101065.44;10173394;29;20040;-71
2022/01/13 19:28:48;;;;;;;7.57;4.43;;;;;;;-6.68;69.52;101069.28;10159267;29;20051;-71
2022/01/13 19:33:53;;;;;;;10.82;4.95;;;;;;;-7.62;69.81;100921.09;10154654;29;20096;-71
2022/01/13 19:38:54;;;;;;;10.93;5.00;;;;;;;-6.94;70.33;101059.59;10173889;29;20155;-71
2022/01/13 19:43:54;;;;;;;7.07;3.90;;;;;;;-7.09;70.58;101021.28;10172794;29;20126;-72
2022/01/13 19:48:56;;;;;;;11.85;5.47;;;;;;;-7.64;70.54;100959.81;10175008;29;20040;-71
2022/01/13 19:53:56;;;;;;;9.15;4.75;;;;;;;-7.47;71.06;100989.53;10173828;29;20183;-71
2022/01/13 19:58:58;;;;;;;10.68;4.88;;;;;;;-7.58;70.91;100985.47;10174144;29;20044;-71
2022/01/13 20:03:59;;;;;;;9.25;4.70;;;;;;;-7.26;71.44;101070.75;10173690;29;20050;-71
2022/01/13 20:09:00;;;;;;;8.80;4.32;;;;;;;-7.33;71.37;101041.66;10173272;29;20063;-71
2022/01/13 20:14:01;;;;;;;10.75;5.07;;;;;;;-7.22;71.31;101049.13;10173412;29;20044;-71
2022/01/13 20:19:03;;;;;;;7.00;3.47;;;;;;;-7.09;71.29;101055.69;10173599;29;20051;-71
2022/01/13 20:24:05;;;;;;;10.73;5.07;;;;;;;-7.12;71.26;101048.00;10145379;29;20536;-70
2022/01/13 20:29:10;;;;;;;10.73;4.88;;;;;;;-7.16;71.69;101062.75;10133165;29;20053;-70
2022/01/13 20:34:12;;;;;;;10.30;5.03;;;;;;;-7.11;72.07;101018.75;10147935;29;20387;-70
2022/01/13 20:39:14;;;;;;;8.88;4.93;;;;;;;-6.87;71.80;101014.66;10131959;29;20497;-70
2022/01/13 20:44:17;;;;;;;11.23;4.90;;;;;;;-6.69;71.73;101021.06;10133128;29;20036;-70
2022/01/13 20:49:20;;;;;;;12.15;5.28;;;;;;;-6.80;72.11;100968.84;10133943;29;20068;-70
2022/01/13 20:54:21;;;;;;;10.40;5.13;;;;;;;-7.43;72.06;100855.22;10133431;29;20048;-70
2022/01/13 20:59:22;;;;;;;11.77;5.30;;;;;;;-6.52;72.00;100998.19;10147417;29;20529;-71
2022/01/13 21:04:24;;;;;;;10.02;5.05;;;;;;;-6.72;71.97;100920.41;10140612;29;20048;-70
2022/01/13 21:09:25;;;;;;;11.18;5.10;;;;;;;-6.57;72.28;100935.44;10139882;29;20151;-70
2022/01/13 21:14:27;;;;;;;12.30;5.53;;;;;;;-6.23;72.52;100987.00;10155457;29;20048;-71
2022/01/13 21:19:31;;;;;;;9.50;5.20;;;;;;;-6.10;72.22;100994.38;10141164;29;20139;-70
2022/01/13 21:24:32;;;;;;;10.90;5.50;;;;;;;-6.35;72.53;100942.56;10155012;29;20096;-70
2022/01/13 21:29:34;;;;;;;13.40;5.28;;;;;;;-6.67;72.54;100915.91;10140950;29;20045;-70
2022/01/13 21:34:35;;;;;;;12.55;5.80;;;;;;;-6.59;72.95;100941.56;10140629;29;20052;-70
2022/01/13 21:39:36;;;;;;;11.20;5.78;;;;;;;-6.74;73.03;100942.84;10123614;29;20079;-70
2022/01/13 21:44:41;;;;;;;12.50;5.93;;;;;;;-7.26;73.22;100890.06;10138521;29;20055;-70
2022/01/13 21:49:42;;;;;;;10.23;5.57;;;;;;;-7.13;73.20;100918.06;10139096;29;20610;-70
2022/01/13 21:54:44;;;;;;;10.25;5.40;;;;;;;-8.83;73.45;100643.22;10138710;29;20052;-70
2022/01/13 21:59:46;;;;;;;8.13;4.97;;;;;;;-7.04;74.26;100931.63;10153358;29;20052;-71
2022/01/13 22:04:48;;;;;;;8.27;5.00;;;;;;;-6.93;74.14;100912.34;10138494;29;20044;-70
2022/01/13 22:09:52;;;;;;;10.88;5.95;;;;;;;-7.77;73.93;100798.53;10138829;29;20465;-70
2022/01/13 22:14:56;;;;;;;16.42;6.93;;;;;;;-7.03;74.31;100926.44;10138882;29;20413;-70
2022/01/13 22:19:57;;;;;;;10.95;5.97;;;;;;;-8.13;74.58;100770.25;10121979;29;20067;-70
2022/01/13 22:24:58;;;;;;;10.68;5.68;;;;;;;-7.36;74.77;100913.53;10139126;29;20058;-71
2022/01/13 22:30:00;;;;;;;10.95;5.57;;;;;;;-7.24;75.40;100933.03;10137800;29;20043;-70
2022/01/13 22:35:02;;;;;;;10.45;5.63;;;;;;;-8.28;75.16;100737.97;10151772;29;20051;-70
2022/01/13 22:40:04;;;;;;;13.57;6.28;;;;;;;-7.19;75.12;100902.75;10136925;29;20080;-70
2022/01/13 22:45:08;;;;;;;12.98;5.88;;;;;;;-6.86;74.52;100914.78;10136887;29;20080;-70
2022/01/13 22:50:12;;;;;;;13.10;6.40;;;;;;;-7.07;74.63;100883.50;10137227;29;20060;-70
2022/01/13 22:55:13;;;;;;;13.10;6.17;;;;;;;-6.94;75.09;100904.63;10136368;29;20047;-70
2022/01/13 23:00:22;;;;;;;12.48;5.88;;;;;;;-7.69;75.01;100759.59;10135030;29;20657;-70
2022/01/13 23:05:22;;;;;;;11.75;5.65;;;;;;;-6.82;75.33;100900.88;10133861;29;20036;-70
2022/01/13 23:10:25;;;;;;;13.60;5.40;;;;;;;-6.74;75.42;100914.41;10133714;29;20056;-70
2022/01/13 23:25:46;;;;;;;9.75;6.00;;;;;;;-6.98;75.18;100846.22;10133416;29;20117;-70
2022/01/13 23:30:47;;;;;;;11.40;6.10;;;;;;;-6.63;75.53;100902.03;10133972;29;20048;-70